SCIE/CCP METAR and TAF weather

Enter ICAO airport designator
Station Type Date Time Source
SCIE METAR 2019/02/16 03:00 UTC NOAA

SCIE 160300Z 35005KT 270V030 9999 OVC011 16/14 Q1013


Station Type Date Time Source
SCIE Decoded METAR 2019/02/16 03:00 UTC NOAA

Concepcion, Chile (SCIE) 36-46S 073-03W
Feb 15, 2019 - 10:00 PM EST / 2019.02.16 0300 UTC
Wind: from the N (350 degrees) at 6 MPH (5 KT) (direction variable):0
Visibility: greater than 7 mile(s):0
Sky conditions: overcast
Temperature: 60 F (16 C)
Dew Point: 57 F (14 C)
Relative Humidity: 87%
Pressure (altimeter): 29.91 in. Hg (1013 hPa)
ob: SCIE 160300Z 35005KT 270V030 9999 OVC011 16/14 Q1013
cycle: 3

Station Type Date Time Source
SCIE TAF 2019/02/16 00:00 UTC NOAA

TAF SCIE 152230Z 1600/1624 36012KT 5000 HZ FEW012 SCT015 TX20/1618Z TN13/1611Z
BECMG 1602/1604 32005KT 7000 BKN010
TEMPO 1608/1614 3000 BR OVC005
BECMG 1614/1616 9999 SCT015
BECMG 1618/1620 23010KT CAVOK


Example: see airport list